Latest Weather Observations for Bunbury

IDW60801

Issued at 2:32 pm WST Thursday 11 February 2016 (issued every 30 minutes, with the page automatically refreshed every 10 minutes)

About weather observations | Map of weather stations | Latest weather observations for WA | Other Formats
Station Details ID: 009965 Name: BUNBURY Lat: -33.36 Lon: 115.64 Height: 5.2 m
Data from the previous 72 hours. | See also: Recent months at Bunbury
Date/Time
WST
Temp
°C
App
Temp
°C
Dew
Point
Rel
Hum
%
Delta-T
°C
Wind Press
QNH
hPa
Press
MSL
hPa
Rain
since 9 am
mm
Dir
 
Spd
km/h
Gust
km/h
Spd
kts
Gust
kts
11/02:30pm 29.4 29.6 17.6 49 7.5 WNW 13 22 7 12 1011.8 1011.8 0.0
11/02:00pm 29.2 29.3 17.4 49 7.5 WNW 13 17 7 9 1011.9 1011.9 0.0
11/01:30pm 29.8 30.4 17.6 48 7.7 WNW 11 15 6 8 1012.3 1012.3 0.0
11/01:00pm 30.2 30.8 17.6 46 8.0 NW 11 15 6 8 1012.4 1012.4 0.0
11/12:30pm 30.4 31.3 17.5 46 8.2 WNW 9 15 5 8 1012.5 1012.5 0.0
11/12:00pm 29.8 30.8 18.6 51 7.2 WNW 11 17 6 9 1012.7 1012.7 0.0
11/11:30am 30.7 31.3 16.7 43 8.8 NW 9 13 5 7 1012.8 1012.8 0.0
11/11:00am 30.3 31.8 18.1 48 7.8 NNW 7 13 4 7 1013.0 1013.0 0.0
11/10:30am 30.4 32.2 16.4 43 8.8 SE 2 7 1 4 1013.2 1013.2 0.0
11/10:00am 29.0 30.7 18.1 51 7.0 WSW 6 9 3 5 1013.3 1013.3 0.0
11/09:30am 28.1 29.7 17.0 51 6.9 WSW 4 7 2 4 1013.4 1013.4 0.0
11/09:00am 27.1 28.9 16.4 52 6.6 SE 2 4 1 2 1013.3 1013.3 0.0
11/08:30am 26.1 27.2 16.6 55 5.9 E 6 13 3 7 1013.1 1013.1 0.0
11/08:00am 24.5 25.0 16.5 61 4.9 SE 9 13 5 7 1013.0 1013.0 0.0
11/07:30am 23.0 23.1 16.5 67 4.0 SE 11 15 6 8 1012.9 1012.9 0.0
11/07:00am 21.5 22.0 16.5 73 3.0 SE 9 11 5 6 1012.8 1012.8 0.0
11/06:30am 20.1 20.9 16.3 79 2.3 SE 7 11 4 6 1012.8 1012.8 0.0
11/06:00am 19.4 20.1 16.2 82 1.9 SE 7 11 4 6 1012.6 1012.6 0.0
11/05:30am 19.2 19.8 15.9 81 2.0 SE 7 9 4 5 1012.3 1012.3 0.0
11/05:00am 19.9 20.8 16.2 79 2.2 SSE 6 13 3 7 1012.0 1012.0 0.0
11/04:30am 20.1 20.9 16.3 79 2.3 S 7 7 4 4 1012.0 1012.0 0.0
11/04:00am 20.4 21.4 16.4 78 2.4 SW 6 9 3 5 1011.8 1011.8 0.0
11/03:30am 20.7 21.5 15.9 74 2.9 WSW 6 6 3 3 1011.3 1011.3 0.0
11/03:00am 21.9 22.9 16.4 71 3.3 E 6 9 3 5 1011.0 1011.0 0.0
11/02:30am 22.5 23.6 16.5 69 3.7 E 6 7 3 4 1011.2 1011.2 0.0
11/02:00am 23.0 23.9 16.5 67 4.0 ESE 7 11 4 6 1011.6 1011.6 0.0
11/01:30am 24.1 24.7 16.9 64 4.4 ESE 9 13 5 7 1011.8 1011.8 0.0
11/01:00am 24.7 24.6 16.9 62 4.8 ESE 13 19 7 10 1012.0 1012.0 0.0
11/12:30am 25.4 25.4 17.1 60 5.2 ESE 13 19 7 10 1012.3 1012.3 0.0
11/12:00am 25.7 25.7 17.1 59 5.3 SE 13 19 7 10 1012.4 1012.4 0.0
 
Date/Time
WST
Temp
°C
App
Temp
°C
Dew
Point
Rel
Hum
%
Delta-T
°C
Wind Press
QNH
hPa
Press
MSL
hPa
Rain
since 9 am
mm
Dir
 
Spd
km/h
Gust
km/h
Spd
kts
Gust
kts
10/11:30pm 26.0 26.2 16.8 57 5.7 SSE 11 17 6 9 1012.4 1012.4 0.0
10/11:00pm 26.4 26.5 17.5 58 5.6 SE 13 19 7 10 1012.4 1012.4 0.0
10/10:30pm 23.8 25.6 18.7 73 3.2 S 7 11 4 6 1012.5 1012.5 0.0
10/10:00pm 23.3 26.6 19.0 77 2.7 CALM 0 0 0 0 1012.9 1012.9 0.0
10/09:30pm 24.5 27.4 19.8 75 3.0 SE 4 6 2 3 1013.0 1013.0 0.0
10/09:00pm 22.9 26.1 19.7 82 2.1 ESE 2 4 1 2 1013.0 1013.0 0.0
10/08:30pm 23.4 27.0 19.8 80 2.3 CALM 0 0 0 0 1012.6 1012.6 0.0
10/08:00pm 25.2 28.3 19.6 71 3.6 S 2 6 1 3 1012.3 1012.3 0.0
10/07:30pm 26.5 28.7 19.6 66 4.5 SW 7 9 4 5 1012.1 1012.1 0.0
10/07:00pm 28.1 30.1 18.8 57 6.0 WSW 6 9 3 5 1012.0 1012.0 0.0
10/06:30pm 29.3 31.1 18.4 51 7.0 WSW 6 11 3 6 1011.9 1011.9 0.0
10/06:00pm 30.6 31.4 17.3 45 8.4 WSW 9 15 5 8 1011.7 1011.7 0.0
10/05:30pm 30.5 31.1 17.6 46 8.2 WSW 11 15 6 8 1011.5 1011.5 0.0
10/05:00pm 30.4 30.7 17.8 46 8.0 W 13 19 7 10 1011.6 1011.6 0.0
10/04:30pm 30.8 31.2 18.2 47 8.1 W 13 19 7 10 1011.6 1011.6 0.0
10/04:00pm 32.5 32.3 16.8 39 10.0 WSW 13 17 7 9 1011.6 1011.6 0.0
10/03:30pm 33.6 33.0 15.6 34 11.2 WSW 13 17 7 9 1011.7 1011.7 0.0
10/03:00pm 34.6 33.8 15.0 31 12.2 WSW 13 15 7 8 1011.9 1011.9 0.0
10/02:30pm 34.7 34.3 15.1 31 12.2 WSW 11 15 6 8 1012.2 1012.2 0.0
10/02:00pm 35.4 35.0 15.2 30 12.6 WSW 11 15 6 8 1012.5 1012.5 0.0
10/01:30pm 36.3 35.8 11.9 23 14.6 WSW 6 13 3 7 1012.7 1012.7 0.0
10/01:00pm 36.5 36.4 13.3 25 14.2 E 6 13 3 7 1013.0 1013.0 0.0
10/12:30pm 35.1 35.9 14.9 29 12.6 ESE 4 9 2 5 1013.3 1013.3 0.0
10/12:00pm 34.3 34.9 15.2 31 11.9 SE 6 15 3 8 1013.7 1013.7 0.0
10/11:30am 32.9 32.5 14.0 32 11.5 ENE 9 17 5 9 1014.1 1014.0 0.0
10/11:00am 32.1 32.4 16.0 38 10.1 ESE 9 19 5 10 1014.4 1014.3 0.0
10/10:30am 30.8 30.3 16.0 40 9.2 SE 13 19 7 10 1014.6 1014.5 0.0
10/10:00am 28.9 28.0 15.8 45 8.1 E 15 22 8 12 1014.8 1014.7 0.0
10/09:30am 27.2 25.9 15.9 50 6.9 ESE 17 24 9 13 1014.9 1014.8 0.0
10/09:00am 25.7 24.4 15.7 54 6.1 ESE 17 30 9 16 1015.0 1014.9 0.0
10/08:30am 24.5 23.5 15.7 58 5.3 SE 15 26 8 14 1015.4 1015.3 0.0
10/08:00am 23.2 21.8 15.5 62 4.6 SE 17 20 9 11 1015.7 1015.6 0.0
10/07:30am 22.2 21.3 15.8 67 3.8 SE 15 22 8 12 1015.7 1015.6 0.0
10/07:00am 20.8 20.6 15.6 72 3.1 SE 11 17 6 9 1015.7 1015.6 0.0
10/06:30am 19.9 19.6 15.5 76 2.6 SE 11 17 6 9 1015.4 1015.3 0.0
10/06:00am 19.2 18.5 15.3 78 2.3 SE 13 20 7 11 1014.8 1014.7 0.0
10/05:30am 19.3 19.0 15.4 78 2.3 SE 11 17 6 9 1014.7 1014.6 0.0
10/05:00am 19.6 19.0 15.7 78 2.3 SE 13 22 7 12 1014.5 1014.4 0.0
10/04:30am 19.8 19.3 15.9 78 2.3 SE 13 22 7 12 1014.2 1014.1 0.0
10/04:00am 20.1 20.0 15.9 77 2.5 SSE 11 17 6 9 1014.3 1014.2 0.0
10/03:30am 20.5 19.6 15.9 75 2.7 SE 15 20 8 11 1014.0 1013.9 0.0
10/03:00am 20.9 20.5 16.1 74 2.9 SSE 13 17 7 9 1013.7 1013.7 0.0
10/02:30am 21.5 20.7 16.2 72 3.2 SE 15 20 8 11 1013.5 1013.5 0.0
10/02:00am 21.9 21.1 16.2 70 3.4 SSE 15 24 8 13 1013.5 1013.5 0.0
10/01:30am 22.8 22.5 16.4 67 3.9 SSE 13 19 7 10 1013.6 1013.6 0.0
10/01:00am 23.5 23.5 16.3 64 4.4 SSE 11 17 6 9 1013.6 1013.6 0.0
10/12:30am 24.4 24.0 16.1 60 5.1 SE 13 22 7 12 1013.7 1013.7 0.0
10/12:00am 25.3 24.4 15.9 56 5.7 SE 15 22 8 12 1013.8 1013.8 0.0
 
Date/Time
WST
Temp
°C
App
Temp
°C
Dew
Point
Rel
Hum
%
Delta-T
°C
Wind Press
QNH
hPa
Press
MSL
hPa
Rain
since 9 am
mm
Dir
 
Spd
km/h
Gust
km/h
Spd
kts
Gust
kts
09/11:30pm 26.0 25.5 16.0 54 6.1 SSE 13 19 7 10 1014.1 1014.0 0.0
09/11:00pm 26.6 26.1 15.9 51 6.5 SE 13 19 7 10 1014.1 1014.0 0.0
09/10:30pm 26.9 27.0 16.5 53 6.4 SSE 11 19 6 10 1014.3 1014.2 0.0
09/10:00pm 26.7 27.1 17.2 56 5.9 SE 11 17 6 9 1014.1 1014.0 0.0
09/09:30pm 27.6 27.8 17.7 54 6.3 SSE 13 19 7 10 1013.8 1013.8 0.0
09/09:00pm 27.8 28.1 18.8 58 5.8 SSE 15 22 8 12 1013.7 1013.7 0.0
09/08:30pm 28.0 28.5 19.2 58 5.7 S 15 22 8 12 1013.6 1013.6 0.0
09/08:00pm 28.8 29.5 18.9 55 6.4 S 13 20 7 11 1013.4 1013.4 0.0
09/07:30pm 28.4 28.7 15.0 44 8.1 SSW 7 13 4 7 1013.2 1013.2 0.0
09/07:00pm 29.4 29.5 14.0 39 9.3 SSW 6 9 3 5 1012.9 1012.9 0.0
09/06:30pm 30.8 30.6 13.1 34 10.5 WSW 6 7 3 4 1012.9 1012.9 0.0
09/06:00pm 31.8 31.6 13.5 32 11.0 WSW 7 9 4 5 1012.9 1012.9 0.0
09/05:30pm 32.8 30.4 6.9 20 14.1 W 9 15 5 8 1013.0 1013.0 0.0
09/05:00pm 34.3 30.9 4.0 15 15.9 W 11 17 6 9 1013.0 1013.0 0.0
09/04:30pm 35.2 32.5 2.6 13 16.8 W 6 9 3 5 1012.9 1012.9 0.0
09/04:00pm 34.3 31.4 4.9 16 15.6 WNW 9 11 5 6 1013.3 1013.3 0.0
09/03:30pm 34.3 31.4 4.9 16 15.6 WNW 9 13 5 7 1013.3 1013.3 0.0
09/03:00pm 35.0 32.5 4.5 15 16.2 W 7 13 4 7 1013.4 1013.4 0.0
09/02:30pm 34.8 31.5 4.4 15 16.1 WNW 11 15 6 8 1013.7 1013.7 0.0
09/02:00pm 35.4 33.3 6.6 17 15.8 WNW 7 13 4 7 1014.0 1013.9 0.0
09/01:30pm 34.5 32.4 6.7 18 15.2 W 7 13 4 7 1014.3 1014.2 0.0
09/01:00pm 34.7 32.3 6.9 18 15.3 WNW 9 13 5 7 1014.5 1014.4 0.0
09/12:30pm 34.0 32.2 7.9 20 14.5 NW 7 15 4 8 1014.6 1014.5 0.0
09/12:00pm 34.0 31.4 7.9 20 14.5 NNW 11 17 6 9 1014.7 1014.6 0.0
09/11:30am 34.5 31.3 8.3 20 14.7 NNW 15 24 8 13 1014.8 1014.7 0.0
09/11:00am 34.3 31.4 8.1 20 14.7 NNW 13 20 7 11 1015.0 1014.9 0.0
09/10:30am 35.6 32.6 7.6 18 15.6 N 13 26 7 14 1015.0 1014.9 0.0
09/10:00am 34.4 32.6 10.9 24 13.7 N 11 15 6 8 1015.1 1015.0 0.0
09/09:30am 33.4 31.3 8.1 21 14.1 N 9 15 5 8 1015.1 1015.0 0.0
09/09:00am 33.0 30.2 7.1 20 14.2 NNE 11 17 6 9 1015.2 1015.1 0.0
09/08:30am 31.0 30.0 10.4 28 11.8 NE 6 9 3 5 1015.3 1015.2 0.0
09/08:00am 28.2 27.4 10.9 34 9.8 ENE 6 11 3 6 1015.2 1015.1 0.0
09/07:30am 25.2 26.0 12.4 45 7.4 CALM 0 4 0 2 1015.1 1015.0 0.0
09/07:00am 21.4 22.6 13.8 62 4.4 CALM 0 0 0 0 1014.9 1014.8 0.0
09/06:30am 17.8 18.4 12.0 69 3.2 CALM 0 0 0 0 1014.7 1014.6 0.0
09/06:00am 16.4 16.8 11.3 72 2.7 CALM 0 0 0 0 1014.1 1014.0 0.0
09/05:30am 16.4 16.1 11.6 73 2.6 S 4 4 2 2 1013.6 1013.6 0.0
09/05:00am 17.7 18.1 11.3 66 3.5 CALM 0 0 0 0 1013.6 1013.6 0.0
09/04:30am 17.7 17.6 10.8 64 3.7 S 2 4 1 2 1013.2 1013.2 0.0
09/04:00am 18.4 18.1 11.5 64 3.8 SSW 4 6 2 3 1013.2 1013.2 0.0
09/03:30am 17.5 17.4 12.0 70 3.0 S 4 6 2 3 1013.1 1013.1 0.0
09/03:00am 18.7 19.3 12.0 65 3.7 CALM 0 0 0 0 1013.2 1013.2 0.0
09/02:30am 19.8 20.5 12.3 62 4.2 CALM 0 0 0 0 1013.1 1013.1 0.0
09/02:00am 20.9 21.0 11.5 55 5.2 WNW 2 6 1 3 1013.3 1013.3 0.0
09/01:30am 21.2 21.1 10.7 51 5.7 ESE 2 2 1 1 1013.3 1013.3 0.0
09/01:00am 24.2 23.5 10.1 41 7.8 E 4 7 2 4 1013.5 1013.5 0.0
09/12:30am 24.7 22.7 10.2 40 8.0 ESE 11 15 6 8 1013.8 1013.8 0.0
09/12:00am 23.3 21.8 10.4 44 7.1 E 9 11 5 6 1014.0 1013.9 0.0
 
Date/Time
WST
Temp
°C
App
Temp
°C
Dew
Point
Rel
Hum
%
Delta-T
°C
Wind Press
QNH
hPa
Press
MSL
hPa
Rain
since 9 am
mm
Dir
 
Spd
km/h
Gust
km/h
Spd
kts
Gust
kts
08/11:30pm 22.6 22.0 10.4 46 6.7 E 4 4 2 2 1014.3 1014.2 0.0
08/11:00pm 22.7 21.9 11.1 48 6.4 SE 6 7 3 4 1014.5 1014.4 0.0
08/10:30pm 24.9 24.3 10.4 40 8.0 SE 4 6 2 3 1014.6 1014.5 0.0
08/10:00pm 28.4 26.8 10.1 32 10.3 SSE 9 15 5 8 1014.8 1014.7 0.0
08/09:30pm 29.3 26.9 9.9 30 10.9 SSE 13 22 7 12 1014.9 1014.8 0.0
08/09:00pm 28.4 26.2 9.2 30 10.6 S 11 19 6 10 1014.9 1014.8 0.0
08/08:30pm 25.7 25.0 11.5 41 8.1 SSW 6 7 3 4 1014.5 1014.4 0.0
08/08:00pm 28.5 27.6 10.7 33 10.1 SSW 6 7 3 4 1014.2 1014.1 0.0
08/07:30pm 29.6 28.7 10.7 31 10.8 S 6 7 3 4 1014.1 1014.0 0.0
08/07:00pm 30.9 30.0 11.3 30 11.4 SSW 7 9 4 5 1013.8 1013.8 0.0
08/06:30pm 32.8 31.4 10.8 26 12.8 SW 9 13 5 7 1013.5 1013.5 0.0
08/06:00pm 33.3 31.8 11.8 27 12.7 WSW 11 19 6 10 1013.4 1013.4 0.0
08/05:30pm 33.9 32.7 11.7 26 13.1 WSW 9 13 5 7 1013.3 1013.3 0.0
08/05:00pm 33.7 32.1 12.7 28 12.6 WSW 13 20 7 11 1013.3 1013.3 0.0
08/04:30pm 34.8 33.5 12.5 26 13.4 W 11 17 6 9 1013.3 1013.3 0.0
08/04:00pm 35.3 33.4 10.4 22 14.5 W 11 17 6 9 1013.3 1013.3 0.0
08/03:30pm 35.2 33.2 11.6 24 14.0 W 13 19 7 10 1013.5 1013.5 0.0
08/03:00pm 35.6 33.0 10.6 22 14.6 W 15 19 8 10 1013.8 1013.8 0.0

Other Formats:

Comma delimited format used in spreadsheet applications
http://www.bom.gov.au/fwo/IDW60801/IDW60801.94604.axf

JavaScript Object Notation format (JSON) in row-major order
http://www.bom.gov.au/fwo/IDW60801/IDW60801.94604.json